Time;durP1;ratioP1;P1;durP2;ratioP2;P2;SDS_P1;SDS_P2;PMS_P1;PMS_P2;Temp;Humidity;BMP_temperature;BMP_pressure;BME280_temperature;BME280_humidity;BME280_pressure;Samples;Min_cycle;Max_cycle;Signal;HPM_P1;HPM_P2
2021/12/14 00:02:22;;;;;;;10.70;3.63;;;11.60;99.90;;;;;;5063632;28;20024;-72
2021/12/14 00:04:48;;;;;;;9.52;2.83;;;11.60;99.90;;;;;;5063546;28;20025;-74
2021/12/14 00:07:16;;;;;;;8.68;3.20;;;11.60;99.90;;;;;;5046218;28;20025;-72
2021/12/14 00:09:43;;;;;;;9.25;3.33;;;11.60;99.90;;;;;;5063655;28;20021;-72
2021/12/14 00:12:39;;;;;;;8.70;3.53;;;11.50;99.90;;;;;;5045808;28;20199;-72
2021/12/14 00:15:13;;;;;;;10.07;3.78;;;11.50;99.90;;;;;;5048836;28;20086;-72
2021/12/14 00:17:42;;;;;;;12.80;4.00;;;11.40;99.90;;;;;;5063724;28;20044;-72
2021/12/14 00:20:28;;;;;;;12.52;3.88;;;11.30;99.90;;;;;;5062407;28;20259;-74
2021/12/14 00:25:49;;;;;;;11.13;4.03;;;11.40;99.90;;;;;;5048522;28;20017;-73
2021/12/14 00:28:22;;;;;;;13.07;4.13;;;11.40;99.90;;;;;;5062810;28;20016;-73
2021/12/14 00:30:51;;;;;;;13.13;4.22;;;11.40;99.90;;;;;;5063253;28;20265;-72
2021/12/14 00:33:22;;;;;;;11.60;4.05;;;11.30;99.90;;;;;;5062311;28;20080;-73
2021/12/14 00:35:49;;;;;;;14.90;4.25;;;11.30;99.90;;;;;;5063530;28;20103;-72
2021/12/14 00:38:18;;;;;;;12.68;4.32;;;11.30;99.90;;;;;;5045634;28;20239;-73
2021/12/14 00:40:48;;;;;;;16.13;4.00;;;11.20;99.90;;;;;;5063251;28;20033;-72
2021/12/14 00:43:14;;;;;;;13.00;4.10;;;11.20;99.90;;;;;;5062875;28;20024;-73
2021/12/14 00:45:42;;;;;;;10.65;4.55;;;11.10;99.90;;;;;;5062124;28;20322;-72
2021/12/14 00:48:09;;;;;;;10.55;4.20;;;11.00;99.90;;;;;;5045882;28;20017;-73
2021/12/14 00:50:36;;;;;;;11.70;4.78;;;10.80;99.90;;;;;;5062224;28;20029;-72
2021/12/14 00:53:02;;;;;;;10.88;4.25;;;10.80;99.90;;;;;;5063445;28;20062;-72
2021/12/14 00:55:35;;;;;;;12.32;4.50;;;10.80;99.90;;;;;;5061649;28;20100;-73
2021/12/14 00:58:01;;;;;;;14.65;4.70;;;10.70;99.90;;;;;;5063428;28;20025;-72
2021/12/14 01:00:33;;;;;;;12.13;4.90;;;10.60;99.90;;;;;;5059925;28;20062;-73
2021/12/14 01:03:01;;;;;;;10.48;4.85;;;10.50;99.90;;;;;;5062274;28;20080;-73
2021/12/14 01:05:32;;;;;;;14.30;5.10;;;10.50;99.90;;;;;;5062043;28;20027;-73
2021/12/14 01:07:59;;;;;;;15.52;5.45;;;10.40;99.90;;;;;;5063226;28;20009;-72
2021/12/14 01:10:34;;;;;;;13.30;4.70;;;10.40;99.90;;;;;;5063082;28;20025;-71
2021/12/14 01:13:05;;;;;;;13.93;4.93;;;10.50;99.90;;;;;;5064997;28;20047;-73
2021/12/14 01:15:53;;;;;;;15.07;4.85;;;10.40;99.90;;;;;;5066552;28;20032;-72
2021/12/14 01:18:47;;;;;;;13.90;5.90;;;10.50;99.90;;;;;;5065667;28;20303;-72
2021/12/14 01:21:28;;;;;;;20.90;5.53;;;10.50;99.90;;;;;;5051619;28;20028;-72
2021/12/14 01:24:04;;;;;;;14.65;4.95;;;10.60;99.90;;;;;;5065384;28;20300;-72
2021/12/14 01:26:33;;;;;;;13.85;4.93;;;10.60;99.90;;;;;;5066434;28;20029;-73
2021/12/14 01:29:00;;;;;;;13.82;5.30;;;10.70;99.90;;;;;;5066586;28;20055;-72
2021/12/14 01:31:33;;;;;;;12.95;4.90;;;10.70;99.90;;;;;;5066162;28;20020;-72
2021/12/14 01:34:05;;;;;;;11.52;4.80;;;10.70;99.90;;;;;;5065348;28;20173;-72
2021/12/14 01:36:41;;;;;;;12.20;4.75;;;10.80;99.90;;;;;;5065037;28;20139;-73
2021/12/14 01:39:46;;;;;;;14.20;4.57;;;11.00;99.90;;;;;;5065703;28;20283;-72
2021/12/14 01:42:17;;;;;;;20.17;5.30;;;11.20;99.90;;;;;;5051488;28;20071;-71
2021/12/14 01:44:57;;;;;;;14.55;4.47;;;11.40;99.90;;;;;;5064852;28;20258;-73
2021/12/14 01:47:31;;;;;;;13.77;3.97;;;11.50;99.90;;;;;;5065976;28;20017;-72
2021/12/14 01:49:57;;;;;;;12.23;3.83;;;11.60;99.90;;;;;;5064939;28;20052;-73
2021/12/14 01:52:29;;;;;;;10.73;3.80;;;11.60;99.90;;;;;;5065069;28;20067;-72
2021/12/14 01:55:00;;;;;;;15.50;4.28;;;11.60;99.90;;;;;;5065554;28;20231;-73
2021/12/14 01:57:29;;;;;;;14.57;4.57;;;11.70;99.90;;;;;;5066005;28;20276;-72
2021/12/14 01:59:58;;;;;;;12.68;3.90;;;11.70;99.90;;;;;;5046610;28;20335;-73
2021/12/14 02:02:31;;;;;;;12.13;4.22;;;11.80;99.90;;;;;;5064586;28;20185;-72
2021/12/14 02:05:00;;;;;;;14.18;4.13;;;11.80;99.90;;;;;;5065676;28;20017;-72
2021/12/14 02:07:27;;;;;;;10.40;3.17;;;11.80;99.90;;;;;;5065506;28;20339;-73
2021/12/14 02:09:59;;;;;;;10.90;4.10;;;11.80;99.90;;;;;;5047815;28;20025;-74
2021/12/14 02:12:28;;;;;;;11.98;3.95;;;11.90;99.90;;;;;;5064567;28;20012;-72
2021/12/14 02:15:06;;;;;;;11.10;3.35;;;12.00;99.90;;;;;;5064647;28;20088;-72
2021/12/14 02:17:31;;;;;;;11.48;3.42;;;12.00;99.90;;;;;;5064589;28;20211;-73
2021/12/14 02:19:57;;;;;;;7.57;3.33;;;12.10;99.90;;;;;;5065409;28;20025;-72
2021/12/14 02:22:25;;;;;;;17.02;3.30;;;12.10;99.90;;;;;;5065516;28;20021;-72
2021/12/14 02:24:51;;;;;;;14.20;3.42;;;12.10;99.90;;;;;;5063191;28;20027;-73
2021/12/14 02:27:17;;;;;;;12.00;3.17;;;12.00;99.90;;;;;;5065110;28;20300;-72
2021/12/14 02:29:46;;;;;;;7.95;2.80;;;12.10;99.90;;;;;;5064259;28;20021;-72
2021/12/14 02:32:22;;;;;;;9.90;3.40;;;12.10;99.90;;;;;;5064108;28;20021;-73
2021/12/14 02:34:52;;;;;;;9.95;3.60;;;12.10;99.90;;;;;;5065037;28;20035;-74
2021/12/14 02:37:23;;;;;;;12.63;3.25;;;12.10;99.90;;;;;;5065116;28;20040;-73
2021/12/14 02:40:02;;;;;;;10.35;3.67;;;12.10;99.90;;;;;;5065129;28;20236;-72
2021/12/14 02:42:30;;;;;;;9.98;3.08;;;12.10;99.90;;;;;;5064153;28;20025;-73
2021/12/14 02:44:57;;;;;;;10.40;2.92;;;12.10;99.90;;;;;;5065016;28;20044;-73
2021/12/14 02:47:24;;;;;;;12.65;2.92;;;12.10;99.90;;;;;;5063798;28;20200;-73
2021/12/14 02:49:50;;;;;;;13.20;3.08;;;12.10;99.90;;;;;;5047244;28;20313;-72
2021/12/14 02:52:26;;;;;;;9.48;3.83;;;12.00;99.90;;;;;;5065026;28;20208;-73
2021/12/14 02:55:00;;;;;;;10.82;3.85;;;12.00;99.90;;;;;;5063365;28;20099;-72
2021/12/14 02:57:29;;;;;;;13.25;3.17;;;11.90;99.90;;;;;;5063646;28;20029;-72
2021/12/14 02:59:56;;;;;;;9.35;3.42;;;11.90;99.90;;;;;;5046966;28;20020;-72
2021/12/14 03:02:26;;;;;;;14.82;3.80;;;11.90;99.90;;;;;;5061878;28;20016;-72
2021/12/14 03:04:56;;;;;;;12.68;4.35;;;11.80;99.90;;;;;;5063687;28;20017;-72
2021/12/14 03:07:26;;;;;;;11.53;3.23;;;11.80;99.90;;;;;;5063540;28;20036;-71
2021/12/14 03:10:00;;;;;;;11.55;4.45;;;11.80;99.90;;;;;;5064453;28;20257;-73
2021/12/14 03:12:44;;;;;;;10.60;3.85;;;11.70;99.90;;;;;;5047254;28;20203;-73
2021/12/14 03:15:29;;;;;;;21.45;4.65;;;11.60;99.90;;;;;;5063509;28;20028;-73
2021/12/14 03:18:00;;;;;;;15.32;3.88;;;11.60;99.90;;;;;;5063181;28;20048;-73
2021/12/14 03:20:31;;;;;;;16.30;4.40;;;11.60;99.90;;;;;;5046935;28;20091;-72
2021/12/14 03:23:21;;;;;;;13.90;4.65;;;11.60;99.90;;;;;;5063164;28;20051;-72
2021/12/14 03:25:52;;;;;;;9.70;3.85;;;11.60;99.90;;;;;;5064056;28;20023;-72
2021/12/14 03:28:19;;;;;;;11.07;4.10;;;11.60;99.90;;;;;;5063171;28;20017;-73
2021/12/14 03:31:18;;;;;;;17.90;4.15;;;11.60;99.90;;;;;;5046501;28;20094;-73
2021/12/14 03:33:51;;;;;;;14.70;3.80;;;11.70;99.90;;;;;;5062966;28;20044;-73
2021/12/14 03:36:23;;;;;;;12.70;4.05;;;11.70;99.90;;;;;;5063964;28;20029;-72
2021/12/14 03:38:57;;;;;;;13.95;3.75;;;11.70;99.90;;;;;;5063889;28;20320;-72
2021/12/14 03:41:29;;;;;;;13.70;3.95;;;11.70;99.90;;;;;;5063074;28;20066;-73
2021/12/14 03:44:05;;;;;;;16.50;3.78;;;11.70;99.90;;;;;;5063021;28;20071;-72
2021/12/14 03:46:35;;;;;;;12.95;4.75;;;11.80;99.90;;;;;;5063830;28;20025;-73
2021/12/14 03:49:04;;;;;;;10.13;3.70;;;11.80;99.90;;;;;;5063973;28;20035;-72
2021/12/14 03:51:30;;;;;;;16.73;3.88;;;11.80;99.90;;;;;;5063778;28;20344;-73
2021/12/14 03:53:57;;;;;;;9.50;4.00;;;11.80;99.90;;;;;;5045815;28;20025;-72
2021/12/14 03:56:24;;;;;;;13.73;4.35;;;11.80;99.90;;;;;;5062942;28;20029;-73
2021/12/14 03:58:50;;;;;;;14.07;5.00;;;11.80;99.90;;;;;;5062445;28;20020;-72
2021/12/14 04:01:20;;;;;;;13.05;3.60;;;11.80;99.90;;;;;;5062747;28;20021;-74
2021/12/14 04:03:51;;;;;;;14.18;3.67;;;11.80;99.90;;;;;;5062890;28;20044;-73
2021/12/14 04:06:19;;;;;;;13.90;3.70;;;11.80;99.90;;;;;;5062811;28;20017;-73
2021/12/14 04:08:45;;;;;;;15.00;3.78;;;11.80;99.90;;;;;;5063520;28;20311;-73
2021/12/14 04:11:12;;;;;;;14.20;3.80;;;11.80;99.90;;;;;;5045697;28;20096;-73
2021/12/14 04:13:41;;;;;;;17.00;4.20;;;11.90;99.90;;;;;;5062732;28;20063;-73
2021/12/14 04:16:09;;;;;;;16.15;3.95;;;11.90;99.90;;;;;;5046031;28;20033;-73
2021/12/14 04:18:35;;;;;;;6.50;3.13;;;11.90;99.90;;;;;;5062716;28;20025;-73
2021/12/14 04:21:01;;;;;;;17.40;4.00;;;11.90;99.90;;;;;;5063376;28;20374;-71
2021/12/14 04:23:31;;;;;;;17.77;3.67;;;11.90;99.90;;;;;;5063428;28;20021;-70
2021/12/14 04:26:00;;;;;;;11.30;3.30;;;12.00;99.90;;;;;;5062255;28;20327;-71
2021/12/14 04:28:30;;;;;;;12.07;3.17;;;12.00;99.90;;;;;;5063476;28;20036;-70
2021/12/14 04:30:56;;;;;;;17.90;3.88;;;12.10;99.90;;;;;;5062547;28;20024;-73
2021/12/14 04:33:34;;;;;;;11.38;3.95;;;12.10;99.90;;;;;;5062370;28;20021;-73
2021/12/14 04:36:03;;;;;;;9.95;3.20;;;12.00;99.90;;;;;;5063473;28;20029;-71
2021/12/14 04:38:33;;;;;;;15.10;3.83;;;12.00;99.90;;;;;;5063127;28;20232;-70
2021/12/14 04:52:15;;;;;;;11.88;3.80;;;11.90;99.90;;;;;;5052861;28;20318;-74
2021/12/14 04:54:50;;;;;;;13.48;3.70;;;11.90;99.90;;;;;;5066744;28;20031;-72
2021/12/14 04:57:32;;;;;;;14.60;3.45;;;11.90;99.90;;;;;;5066558;28;20088;-73
2021/12/14 05:00:21;;;;;;;13.57;3.08;;;11.90;99.90;;;;;;5066845;28;20017;-72
2021/12/14 05:02:49;;;;;;;14.93;3.35;;;11.90;99.90;;;;;;5064167;28;20032;-72
2021/12/14 05:05:20;;;;;;;11.88;3.58;;;12.00;99.90;;;;;;5065605;28;20316;-73
2021/12/14 05:11:07;;;;;;;15.05;3.50;;;12.00;99.90;;;;;;5065747;28;20040;-72
2021/12/14 05:13:38;;;;;;;15.20;3.40;;;12.10;99.90;;;;;;5065857;28;20043;-73
2021/12/14 05:16:05;;;;;;;11.70;2.95;;;12.10;99.90;;;;;;5065631;28;20029;-74
2021/12/14 05:18:31;;;;;;;16.02;3.17;;;12.10;99.90;;;;;;5066473;28;20048;-73
2021/12/14 05:20:58;;;;;;;11.50;3.10;;;12.10;99.90;;;;;;5065454;28;20021;-72
2021/12/14 05:23:29;;;;;;;9.63;2.85;;;12.10;99.90;;;;;;5066650;28;20338;-73
2021/12/14 05:25:56;;;;;;;9.27;3.37;;;12.10;99.90;;;;;;5065255;28;20029;-72
2021/12/14 05:28:24;;;;;;;12.15;2.83;;;12.10;99.90;;;;;;5065436;28;20020;-72
2021/12/14 05:30:54;;;;;;;9.80;3.20;;;12.10;99.90;;;;;;5065197;28;20025;-73
2021/12/14 05:33:24;;;;;;;11.45;3.22;;;12.10;99.90;;;;;;5065041;28;20220;-72
2021/12/14 05:35:53;;;;;;;12.68;3.25;;;12.10;99.90;;;;;;5065281;28;20032;-72
2021/12/14 05:38:26;;;;;;;9.73;3.10;;;12.10;99.90;;;;;;5065024;28;20347;-72
2021/12/14 05:41:08;;;;;;;10.55;2.88;;;12.10;99.90;;;;;;5049279;28;20211;-72
2021/12/14 05:43:34;;;;;;;14.40;3.50;;;12.20;99.90;;;;;;5066474;28;20052;-72
2021/12/14 05:46:05;;;;;;;8.05;3.45;;;12.20;99.90;;;;;;5066024;28;20021;-72
2021/12/14 05:48:35;;;;;;;8.35;3.03;;;12.10;99.90;;;;;;5064889;28;20075;-73
2021/12/14 05:51:08;;;;;;;12.70;3.40;;;12.10;99.90;;;;;;5065078;28;20354;-72
2021/12/14 05:53:40;;;;;;;9.60;3.20;;;12.10;99.90;;;;;;5065005;28;20033;-72
2021/12/14 05:56:10;;;;;;;11.38;3.00;;;12.10;99.90;;;;;;5064957;28;20025;-73
2021/12/14 05:58:36;;;;;;;12.82;3.20;;;12.10;99.90;;;;;;5063206;28;20315;-73
2021/12/14 06:01:06;;;;;;;9.00;2.85;;;12.10;99.90;;;;;;5064510;28;20085;-73
2021/12/14 06:03:38;;;;;;;10.52;2.80;;;12.10;99.90;;;;;;5064308;28;20094;-73
2021/12/14 06:06:11;;;;;;;8.18;2.85;;;12.10;99.90;;;;;;5065738;28;20216;-72
2021/12/14 06:08:37;;;;;;;10.93;3.15;;;12.10;99.90;;;;;;5064590;28;20074;-73
2021/12/14 06:11:03;;;;;;;10.88;2.80;;;12.00;99.90;;;;;;5065453;28;20017;-72
2021/12/14 06:13:41;;;;;;;12.27;2.90;;;12.00;99.90;;;;;;5065807;28;20025;-74
2021/12/14 06:16:08;;;;;;;10.10;2.50;;;12.00;99.90;;;;;;5065268;28;20231;-71
2021/12/14 06:18:34;;;;;;;7.22;2.33;;;12.00;99.90;;;;;;5065500;28;20052;-71
2021/12/14 06:21:00;;;;;;;9.13;2.50;;;12.00;99.90;;;;;;5063904;28;20177;-72
2021/12/14 06:23:29;;;;;;;7.93;2.47;;;12.00;99.90;;;;;;5064172;28;20025;-73
2021/12/14 06:25:56;;;;;;;9.95;2.55;;;11.90;99.90;;;;;;5063929;28;20020;-71
2021/12/14 06:28:27;;;;;;;10.40;2.33;;;11.90;99.90;;;;;;5065330;28;20059;-73
2021/12/14 06:30:56;;;;;;;12.57;3.15;;;12.00;99.90;;;;;;5063592;28;20021;-73
2021/12/14 06:33:22;;;;;;;12.05;2.88;;;12.00;99.90;;;;;;5064973;28;20052;-73
2021/12/14 06:35:50;;;;;;;11.18;3.20;;;12.00;99.90;;;;;;5063884;28;20032;-73
2021/12/14 06:38:36;;;;;;;10.10;2.80;;;12.00;99.90;;;;;;5046951;28;20186;-74
2021/12/14 06:41:14;;;;;;;14.13;3.70;;;12.00;99.90;;;;;;5063948;28;20017;-72
2021/12/14 06:43:58;;;;;;;13.00;3.17;;;12.00;99.90;;;;;;5047721;28;20032;-72
2021/12/14 06:46:34;;;;;;;11.98;3.13;;;12.00;99.90;;;;;;5063562;28;20031;-73
2021/12/14 06:49:09;;;;;;;8.05;3.08;;;12.00;99.90;;;;;;5063964;28;20025;-73
2021/12/14 06:51:40;;;;;;;14.60;3.47;;;11.90;99.90;;;;;;5064386;28;20028;-72
2021/12/14 06:54:10;;;;;;;11.07;3.33;;;12.00;99.90;;;;;;5047184;28;20036;-71
2021/12/14 06:56:36;;;;;;;12.38;3.22;;;12.00;99.90;;;;;;5047201;28;20184;-73
2021/12/14 06:59:08;;;;;;;13.35;3.78;;;12.00;99.90;;;;;;5064880;28;20027;-72
2021/12/14 07:01:52;;;;;;;10.57;3.45;;;12.00;99.90;;;;;;5063143;28;20316;-72
2021/12/14 07:04:22;;;;;;;13.60;3.20;;;11.90;99.90;;;;;;5062278;28;20029;-72
2021/12/14 07:06:54;;;;;;;9.43;3.03;;;11.90;99.90;;;;;;5063561;28;20246;-72
2021/12/14 07:09:33;;;;;;;11.45;3.60;;;12.00;99.90;;;;;;5063101;28;20051;-72
2021/12/14 07:12:06;;;;;;;13.05;3.78;;;11.90;99.90;;;;;;5064410;28;20023;-72
2021/12/14 07:15:03;;;;;;;12.80;3.97;;;11.90;99.90;;;;;;5063361;28;20262;-72
2021/12/14 07:17:40;;;;;;;11.68;3.53;;;11.90;99.90;;;;;;5063361;28;20524;-73
2021/12/14 07:20:21;;;;;;;12.18;3.30;;;12.00;99.90;;;;;;5063995;28;20028;-71
2021/12/14 07:22:52;;;;;;;14.23;3.38;;;12.00;99.90;;;;;;5062766;28;20084;-72
2021/12/14 07:25:31;;;;;;;10.88;3.67;;;11.90;99.90;;;;;;5062858;28;20045;-71
2021/12/14 07:28:09;;;;;;;10.25;3.25;;;12.00;99.90;;;;;;5062655;28;20021;-72
2021/12/14 07:30:49;;;;;;;11.93;3.45;;;11.90;99.90;;;;;;5062777;28;20029;-72
2021/12/14 07:33:25;;;;;;;11.88;4.38;;;11.90;99.90;;;;;;5064002;28;20350;-72
2021/12/14 07:36:12;;;;;;;9.90;3.25;;;11.90;99.90;;;;;;5045957;28;20041;-72
2021/12/14 07:38:45;;;;;;;13.25;3.30;;;12.00;99.90;;;;;;5062799;28;20220;-73
2021/12/14 07:41:31;;;;;;;11.65;3.50;;;12.00;99.90;;;;;;5062699;28;20086;-72
2021/12/14 07:44:03;;;;;;;11.82;3.63;;;12.00;99.90;;;;;;5064107;28;20181;-73
2021/12/14 07:46:39;;;;;;;12.38;3.72;;;12.00;99.90;;;;;;5063320;28;20235;-73
2021/12/14 07:49:24;;;;;;;9.85;3.45;;;12.00;99.90;;;;;;5062891;28;20029;-72
2021/12/14 07:51:57;;;;;;;13.20;3.90;;;12.10;99.90;;;;;;5062752;28;20033;-76
2021/12/14 07:54:27;;;;;;;11.35;3.15;;;12.10;99.90;;;;;;5062486;28;20013;-73
2021/12/14 07:57:03;;;;;;;9.88;3.33;;;12.10;99.90;;;;;;5063818;28;20035;-74
2021/12/14 07:59:35;;;;;;;13.18;3.70;;;12.10;99.90;;;;;;5061119;28;20013;-74
2021/12/14 08:02:22;;;;;;;16.45;4.22;;;12.00;99.90;;;;;;5077325;28;20029;-70
2021/12/14 08:05:27;;;;;;;10.20;3.05;;;11.90;99.90;;;;;;5077298;28;20028;-72
2021/12/14 08:07:59;;;;;;;8.68;3.17;;;11.90;99.90;;;;;;5044327;28;20064;-69
2021/12/14 08:10:29;;;;;;;9.15;3.20;;;11.80;99.90;;;;;;5055024;28;20025;-73
2021/12/14 08:13:02;;;;;;;10.73;3.47;;;11.90;99.90;;;;;;5043349;28;20017;-70
2021/12/14 08:15:40;;;;;;;7.78;3.20;;;11.80;99.90;;;;;;5025826;28;20034;-71
2021/12/14 08:18:15;;;;;;;8.13;3.50;;;11.90;99.90;;;;;;5050329;28;20056;-70
2021/12/14 08:20:49;;;;;;;9.85;3.60;;;11.90;99.90;;;;;;5059850;28;20021;-71
2021/12/14 08:23:25;;;;;;;10.02;2.92;;;12.00;99.90;;;;;;5065608;28;20021;-71
2021/12/14 08:25:56;;;;;;;8.45;3.30;;;12.00;99.90;;;;;;5045196;28;20025;-72
2021/12/14 08:28:22;;;;;;;18.75;4.07;;;12.00;99.90;;;;;;5047363;28;20025;-72
2021/12/14 08:31:06;;;;;;;14.52;3.80;;;12.00;99.90;;;;;;5046818;28;20082;-72
2021/12/14 08:33:32;;;;;;;9.20;3.72;;;12.10;99.90;;;;;;5045676;28;20079;-72
2021/12/14 08:36:04;;;;;;;15.27;3.15;;;12.10;99.90;;;;;;5045749;28;20025;-70
2021/12/14 08:38:33;;;;;;;14.73;3.92;;;12.10;99.90;;;;;;5045473;28;20095;-73
2021/12/14 08:41:12;;;;;;;11.23;3.78;;;12.10;99.90;;;;;;5046844;28;20021;-70
2021/12/14 08:43:46;;;;;;;12.88;4.20;;;12.10;99.90;;;;;;5046717;28;20025;-72
2021/12/14 08:46:18;;;;;;;16.17;3.20;;;12.20;99.90;;;;;;5046514;28;20079;-72
2021/12/14 08:48:48;;;;;;;12.20;3.55;;;12.30;99.90;;;;;;5048107;28;20029;-72
2021/12/14 08:51:21;;;;;;;12.23;3.20;;;12.30;99.90;;;;;;5046896;28;20334;-71
2021/12/14 08:53:53;;;;;;;15.77;3.90;;;12.40;99.90;;;;;;5055540;28;20037;-71
2021/12/14 08:56:20;;;;;;;15.00;3.92;;;12.50;99.90;;;;;;5065234;28;20104;-71
2021/12/14 08:58:47;;;;;;;13.90;3.50;;;12.50;99.90;;;;;;5065371;28;20098;-72
2021/12/14 09:01:19;;;;;;;10.50;3.25;;;12.60;99.90;;;;;;5066037;28;20017;-70
2021/12/14 09:03:52;;;;;;;14.20;3.90;;;12.70;99.90;;;;;;5063893;28;20474;-74
2021/12/14 09:06:28;;;;;;;13.20;3.80;;;12.70;99.90;;;;;;5056916;28;20048;-72
2021/12/14 09:08:55;;;;;;;9.23;3.85;;;12.70;99.90;;;;;;5044995;28;20025;-73
2021/12/14 09:11:26;;;;;;;11.80;3.85;;;12.70;99.90;;;;;;5065059;28;20165;-73
2021/12/14 09:13:53;;;;;;;7.72;3.95;;;12.70;99.90;;;;;;5052739;28;20053;-73
2021/12/14 09:16:22;;;;;;;11.82;3.35;;;12.80;99.90;;;;;;5046119;28;20033;-77
2021/12/14 09:18:52;;;;;;;10.82;3.50;;;12.80;99.90;;;;;;5028797;28;20021;-76
2021/12/14 09:21:22;;;;;;;11.65;3.22;;;12.80;99.90;;;;;;5028697;28;20308;-77
2021/12/14 09:23:53;;;;;;;10.73;3.60;;;12.80;99.90;;;;;;5045789;28;20022;-74
2021/12/14 09:26:24;;;;;;;9.23;3.60;;;12.90;99.90;;;;;;5045018;28;20028;-71
2021/12/14 09:28:53;;;;;;;9.43;3.10;;;13.00;99.90;;;;;;5028706;28;20100;-76
2021/12/14 09:31:24;;;;;;;9.35;2.97;;;13.00;99.90;;;;;;5046373;28;20021;-73
2021/12/14 09:33:52;;;;;;;11.40;2.95;;;13.00;99.90;;;;;;5045491;28;20049;-74
2021/12/14 09:36:18;;;;;;;11.07;3.40;;;13.00;99.90;;;;;;5045848;28;20029;-75
2021/12/14 09:38:49;;;;;;;6.43;3.03;;;13.00;99.90;;;;;;5050005;28;20056;-76
2021/12/14 09:41:18;;;;;;;9.73;3.45;;;12.90;99.90;;;;;;5065009;28;20067;-75
2021/12/14 09:43:46;;;;;;;9.40;3.17;;;12.90;99.90;;;;;;5048029;28;20086;-73
2021/12/14 09:46:13;;;;;;;9.75;3.40;;;12.80;99.90;;;;;;5064322;28;20108;-72
2021/12/14 09:48:42;;;;;;;15.30;3.90;;;12.90;99.90;;;;;;5064183;28;20025;-73
2021/12/14 09:51:14;;;;;;;7.38;3.70;;;12.90;99.90;;;;;;5044519;28;20018;-74
2021/12/14 09:53:43;;;;;;;13.68;3.83;;;12.90;99.90;;;;;;5036060;28;20223;-73
2021/12/14 09:56:12;;;;;;;10.43;3.30;;;12.80;99.90;;;;;;5044330;28;20037;-72
2021/12/14 09:58:43;;;;;;;9.48;3.13;;;12.80;99.90;;;;;;5043992;28;20056;-74
2021/12/14 10:01:19;;;;;;;7.80;3.08;;;12.80;99.90;;;;;;5059318;28;20111;-71
2021/12/14 10:03:48;;;;;;;10.73;3.33;;;12.80;99.90;;;;;;5063954;28;20028;-73
2021/12/14 10:06:18;;;;;;;9.00;3.60;;;12.80;99.90;;;;;;5045252;28;20388;-72
2021/12/14 10:08:49;;;;;;;9.23;3.10;;;12.80;99.90;;;;;;5043734;28;20335;-74
2021/12/14 10:11:35;;;;;;;7.88;2.85;;;12.90;99.90;;;;;;5044422;28;20355;-72
2021/12/14 10:14:01;;;;;;;11.35;3.72;;;12.90;99.90;;;;;;5045187;28;20029;-72
2021/12/14 10:16:27;;;;;;;9.50;3.22;;;13.00;99.90;;;;;;5043962;28;20041;-72
2021/12/14 10:18:57;;;;;;;13.90;3.72;;;12.90;99.90;;;;;;5045132;28;20063;-73
2021/12/14 10:21:29;;;;;;;10.45;3.40;;;12.90;99.90;;;;;;5044059;28;20044;-73
2021/12/14 10:23:58;;;;;;;12.77;3.30;;;12.90;99.90;;;;;;5026358;28;20025;-70
2021/12/14 10:26:24;;;;;;;9.15;2.92;;;12.90;99.90;;;;;;5043782;28;20204;-73
2021/12/14 10:28:54;;;;;;;8.73;3.13;;;13.00;99.90;;;;;;5064819;28;20021;-72
2021/12/14 10:31:28;;;;;;;7.78;3.38;;;13.00;99.90;;;;;;5047527;28;20020;-72
2021/12/14 10:33:55;;;;;;;13.48;5.28;;;13.00;99.90;;;;;;5055292;28;20029;-73
2021/12/14 10:36:30;;;;;;;8.95;3.78;;;13.00;99.90;;;;;;5026898;28;20036;-75
2021/12/14 10:44:39;;;;;;;11.13;3.75;;;13.10;99.90;;;;;;5059410;28;20020;-71
2021/12/14 10:47:07;;;;;;;7.10;3.15;;;13.00;99.90;;;;;;5064965;28;20066;-72
2021/12/14 10:49:33;;;;;;;7.68;3.30;;;13.00;99.90;;;;;;5062080;28;20044;-74
2021/12/14 10:52:04;;;;;;;9.50;3.38;;;13.10;99.90;;;;;;5051643;28;20029;-72
2021/12/14 10:54:33;;;;;;;8.02;3.05;;;13.10;99.90;;;;;;5063165;28;20313;-70
2021/12/14 10:57:05;;;;;;;8.25;3.00;;;13.10;99.90;;;;;;5064241;28;20027;-72
2021/12/14 10:59:36;;;;;;;8.68;3.42;;;13.10;99.90;;;;;;5063871;28;20045;-70
2021/12/14 11:02:03;;;;;;;11.93;4.53;;;13.10;99.90;;;;;;5047010;28;20020;-70
2021/12/14 11:04:38;;;;;;;10.70;3.58;;;13.10;99.90;;;;;;5061701;28;20569;-73
2021/12/14 11:07:12;;;;;;;12.88;3.47;;;13.10;99.90;;;;;;5061923;28;20013;-71
2021/12/14 11:09:45;;;;;;;8.15;3.10;;;13.10;99.90;;;;;;5059125;28;20064;-71
2021/12/14 11:12:23;;;;;;;8.25;3.45;;;13.10;99.90;;;;;;5063394;28;20063;-72
2021/12/14 11:14:53;;;;;;;7.93;3.63;;;13.20;99.90;;;;;;5057961;28;20234;-73
2021/12/14 11:20:31;;;;;;;7.55;3.72;;;13.40;99.90;;;;;;5040909;28;20294;-73
2021/12/14 11:23:16;;;;;;;9.20;3.55;;;13.40;99.90;;;;;;5043357;28;20028;-71
2021/12/14 11:25:53;;;;;;;10.82;3.22;;;13.40;99.90;;;;;;5040344;28;20356;-73
2021/12/14 11:28:41;;;;;;;12.40;3.08;;;13.40;99.90;;;;;;5050418;28;20051;-71
2021/12/14 11:31:14;;;;;;;7.55;2.70;;;13.50;99.90;;;;;;5009815;28;20047;-73
2021/12/14 11:33:51;;;;;;;6.05;2.90;;;13.40;99.90;;;;;;5040199;28;20030;-73
2021/12/14 11:36:39;;;;;;;8.18;3.40;;;13.40;99.90;;;;;;5040195;28;20029;-71
2021/12/14 11:39:22;;;;;;;6.07;3.17;;;13.50;99.90;;;;;;5038775;28;20148;-72
2021/12/14 11:42:11;;;;;;;8.73;3.22;;;13.50;99.90;;;;;;5039928;28;20025;-74
2021/12/14 11:44:42;;;;;;;10.40;3.22;;;13.40;99.90;;;;;;5039728;28;20361;-74
2021/12/14 11:47:41;;;;;;;;;;;13.40;99.90;;;;;;5039602;28;20214;-74
2021/12/14 11:50:21;;;;;;;10.45;3.72;;;13.40;99.90;;;;;;5050467;28;20242;-75
2021/12/14 11:53:11;;;;;;;11.45;3.47;;;13.40;99.90;;;;;;5053117;28;20029;-73
2021/12/14 11:56:10;;;;;;;7.97;3.33;;;13.40;99.90;;;;;;5060491;28;20040;-74
2021/12/14 11:58:48;;;;;;;13.38;3.70;;;13.40;99.90;;;;;;5075643;28;20103;-71
2021/12/14 12:01:30;;;;;;;5.47;3.45;;;13.40;99.90;;;;;;5061452;28;20028;-73
2021/12/14 12:04:10;;;;;;;9.32;2.78;;;13.40;99.90;;;;;;5060147;28;20035;-73
2021/12/14 12:09:47;;;;;;;10.38;3.05;;;13.60;99.90;;;;;;5026100;28;20100;-75
2021/12/14 12:12:27;;;;;;;10.52;3.95;;;13.60;99.90;;;;;;5042890;28;20028;-74
2021/12/14 12:15:19;;;;;;;7.70;3.42;;;13.60;99.90;;;;;;5059582;28;20035;-74
2021/12/14 12:17:52;;;;;;;13.10;4.60;;;13.60;99.90;;;;;;5053548;28;20320;-73
2021/12/14 12:20:38;;;;;;;11.25;3.33;;;13.50;99.90;;;;;;5043715;28;20033;-73
2021/12/14 12:23:09;;;;;;;14.88;4.47;;;13.50;99.90;;;;;;5084749;28;20020;-73
2021/12/14 12:25:43;;;;;;;10.82;3.53;;;13.50;99.90;;;;;;5069467;28;20032;-73
2021/12/14 12:28:12;;;;;;;10.60;3.28;;;13.50;99.90;;;;;;5064784;28;20024;-74
2021/12/14 12:30:46;;;;;;;23.42;4.13;;;13.50;99.90;;;;;;5076862;28;20032;-74
2021/12/14 12:33:18;;;;;;;9.55;3.67;;;13.50;99.90;;;;;;5083452;28;20027;-74
2021/12/14 12:35:49;;;;;;;;;;;13.60;99.90;;;;;;5048966;28;20055;-74
2021/12/14 12:38:38;;;;;;;8.00;2.95;;;13.70;99.90;;;;;;5042256;28;19913;-71
2021/12/14 12:41:30;;;;;;;11.95;3.38;;;13.60;99.90;;;;;;5039747;28;20089;-71
2021/12/14 12:44:25;;;;;;;8.75;3.17;;;13.60;99.90;;;;;;5029342;28;20036;-73
2021/12/14 12:47:13;;;;;;;8.70;3.63;;;13.60;99.90;;;;;;5042047;28;20017;-72
2021/12/14 12:49:42;;;;;;;7.18;3.17;;;13.60;99.90;;;;;;5042435;28;20032;-72
2021/12/14 12:52:14;;;;;;;8.52;3.67;;;13.60;99.90;;;;;;5037642;28;20043;-71
2021/12/14 12:55:04;;;;;;;10.80;4.38;;;13.70;99.90;;;;;;5041523;28;20121;-72
2021/12/14 12:57:37;;;;;;;8.85;3.70;;;13.80;99.90;;;;;;5044304;28;20033;-69
2021/12/14 13:00:43;;;;;;;8.40;3.80;;;13.80;99.90;;;;;;5042781;28;20359;-71
2021/12/14 13:03:18;;;;;;;8.07;3.22;;;13.70;99.90;;;;;;5045325;28;20025;-70
2021/12/14 13:06:14;;;;;;;8.75;3.50;;;13.80;99.90;;;;;;5042938;28;20085;-71
2021/12/14 13:08:44;;;;;;;6.93;3.15;;;13.80;99.90;;;;;;5030811;28;20024;-70
2021/12/14 13:11:16;;;;;;;8.15;3.70;;;13.80;99.90;;;;;;5044257;28;20045;-73
2021/12/14 13:13:58;;;;;;;11.88;4.13;;;13.80;99.90;;;;;;5046384;28;20208;-72
2021/12/14 13:16:38;;;;;;;7.53;3.42;;;13.80;99.90;;;;;;5059197;28;20130;-71
2021/12/14 13:19:11;;;;;;;8.25;3.22;;;13.80;99.90;;;;;;5054749;28;20052;-73
2021/12/14 13:21:47;;;;;;;8.70;3.10;;;13.80;99.90;;;;;;5045235;28;20041;-74
2021/12/14 13:24:24;;;;;;;9.13;3.40;;;13.90;99.90;;;;;;5059377;28;20060;-73
2021/12/14 13:27:16;;;;;;;7.15;2.90;;;13.90;99.90;;;;;;5064431;28;20558;-73
2021/12/14 13:30:06;;;;;;;6.30;2.33;;;13.90;99.90;;;;;;5065579;28;20031;-70
2021/12/14 13:32:35;;;;;;;5.85;2.45;;;13.90;99.90;;;;;;5064797;28;20063;-73
2021/12/14 13:35:21;;;;;;;12.15;2.97;;;13.90;99.90;;;;;;5048418;28;20104;-75
2021/12/14 13:37:51;;;;;;;5.55;2.80;;;13.90;99.90;;;;;;5064183;28;20060;-72
2021/12/14 13:40:33;;;;;;;7.97;2.25;;;13.80;99.90;;;;;;5048698;28;20088;-71
2021/12/14 13:43:33;;;;;;;7.03;2.60;;;13.80;99.90;;;;;;5048837;28;20047;-72